sensor_id;sensor_type;location;lat;lon;timestamp;P1;durP1;ratioP1;P2;durP2;ratioP2
71610;SDS011;59459;51.172;6.682;2023-04-24T00:01:33;3.00;;;0.90;;
71610;SDS011;59459;51.172;6.682;2023-04-24T00:03:59;4.07;;;0.80;;
71610;SDS011;59459;51.172;6.682;2023-04-24T00:06:24;4.10;;;1.10;;
71610;SDS011;59459;51.172;6.682;2023-04-24T00:08:57;3.45;;;0.80;;
71610;SDS011;59459;51.172;6.682;2023-04-24T00:11:23;2.97;;;0.93;;
71610;SDS011;59459;51.172;6.682;2023-04-24T00:13:48;2.30;;;0.70;;
71610;SDS011;59459;51.172;6.682;2023-04-24T00:16:13;3.00;;;1.03;;
71610;SDS011;59459;51.172;6.682;2023-04-24T00:18:38;2.43;;;0.97;;
71610;SDS011;59459;51.172;6.682;2023-04-24T00:21:03;2.60;;;0.90;;
71610;SDS011;59459;51.172;6.682;2023-04-24T00:23:30;3.30;;;0.90;;
71610;SDS011;59459;51.172;6.682;2023-04-24T00:25:55;2.75;;;0.90;;
71610;SDS011;59459;51.172;6.682;2023-04-24T00:28:20;2.93;;;0.80;;
71610;SDS011;59459;51.172;6.682;2023-04-24T00:30:45;2.67;;;0.80;;
71610;SDS011;59459;51.172;6.682;2023-04-24T00:33:10;3.27;;;0.93;;
71610;SDS011;59459;51.172;6.682;2023-04-24T00:35:36;3.50;;;1.00;;
71610;SDS011;59459;51.172;6.682;2023-04-24T00:38:01;3.50;;;1.00;;
71610;SDS011;59459;51.172;6.682;2023-04-24T00:40:26;2.97;;;0.87;;
71610;SDS011;59459;51.172;6.682;2023-04-24T00:42:52;4.13;;;1.27;;
71610;SDS011;59459;51.172;6.682;2023-04-24T00:45:17;4.93;;;1.20;;
71610;SDS011;59459;51.172;6.682;2023-04-24T00:47:42;5.07;;;1.33;;
71610;SDS011;59459;51.172;6.682;2023-04-24T00:50:08;3.80;;;1.10;;
71610;SDS011;59459;51.172;6.682;2023-04-24T00:52:33;3.33;;;1.27;;
71610;SDS011;59459;51.172;6.682;2023-04-24T00:54:59;7.50;;;1.67;;
71610;SDS011;59459;51.172;6.682;2023-04-24T00:57:24;5.13;;;1.60;;
71610;SDS011;59459;51.172;6.682;2023-04-24T00:59:50;4.47;;;1.70;;
71610;SDS011;59459;51.172;6.682;2023-04-24T01:02:15;6.57;;;1.70;;
71610;SDS011;59459;51.172;6.682;2023-04-24T01:04:41;4.47;;;1.60;;
71610;SDS011;59459;51.172;6.682;2023-04-24T01:07:06;7.97;;;2.80;;
71610;SDS011;59459;51.172;6.682;2023-04-24T01:09:45;7.60;;;2.50;;
71610;SDS011;59459;51.172;6.682;2023-04-24T01:12:13;9.13;;;2.92;;
71610;SDS011;59459;51.172;6.682;2023-04-24T01:14:38;10.20;;;3.03;;
71610;SDS011;59459;51.172;6.682;2023-04-24T01:17:03;8.80;;;3.20;;
71610;SDS011;59459;51.172;6.682;2023-04-24T01:19:29;7.63;;;3.10;;
71610;SDS011;59459;51.172;6.682;2023-04-24T01:21:54;9.30;;;3.70;;
71610;SDS011;59459;51.172;6.682;2023-04-24T01:24:22;10.35;;;3.15;;
71610;SDS011;59459;51.172;6.682;2023-04-24T01:26:47;9.80;;;3.73;;
71610;SDS011;59459;51.172;6.682;2023-04-24T01:29:13;9.47;;;4.33;;
71610;SDS011;59459;51.172;6.682;2023-04-24T01:31:39;10.33;;;4.53;;
71610;SDS011;59459;51.172;6.682;2023-04-24T01:34:04;10.63;;;4.30;;
71610;SDS011;59459;51.172;6.682;2023-04-24T01:36:30;12.07;;;4.43;;
71610;SDS011;59459;51.172;6.682;2023-04-24T01:38:57;10.40;;;4.40;;
71610;SDS011;59459;51.172;6.682;2023-04-24T01:41:22;11.07;;;5.07;;
71610;SDS011;59459;51.172;6.682;2023-04-24T01:43:48;11.80;;;4.72;;
71610;SDS011;59459;51.172;6.682;2023-04-24T01:46:13;13.60;;;5.03;;
71610;SDS011;59459;51.172;6.682;2023-04-24T01:48:39;13.17;;;5.17;;
71610;SDS011;59459;51.172;6.682;2023-04-24T01:51:05;10.85;;;4.90;;
71610;SDS011;59459;51.172;6.682;2023-04-24T01:53:30;12.87;;;5.40;;
71610;SDS011;59459;51.172;6.682;2023-04-24T01:55:55;13.20;;;5.13;;
71610;SDS011;59459;51.172;6.682;2023-04-24T01:58:20;12.30;;;5.53;;
71610;SDS011;59459;51.172;6.682;2023-04-24T02:00:46;12.80;;;5.97;;
71610;SDS011;59459;51.172;6.682;2023-04-24T02:03:11;14.10;;;5.57;;
71610;SDS011;59459;51.172;6.682;2023-04-24T02:05:36;13.50;;;5.27;;
71610;SDS011;59459;51.172;6.682;2023-04-24T02:08:02;14.50;;;5.80;;
71610;SDS011;59459;51.172;6.682;2023-04-24T02:10:27;12.30;;;5.30;;
71610;SDS011;59459;51.172;6.682;2023-04-24T02:12:52;12.50;;;5.23;;
71610;SDS011;59459;51.172;6.682;2023-04-24T02:15:17;14.57;;;5.67;;
71610;SDS011;59459;51.172;6.682;2023-04-24T02:17:43;13.83;;;5.23;;
71610;SDS011;59459;51.172;6.682;2023-04-24T02:20:08;11.13;;;5.20;;
71610;SDS011;59459;51.172;6.682;2023-04-24T02:22:33;12.57;;;5.83;;
71610;SDS011;59459;51.172;6.682;2023-04-24T02:24:58;16.63;;;6.27;;
71610;SDS011;59459;51.172;6.682;2023-04-24T02:27:24;18.40;;;6.30;;
71610;SDS011;59459;51.172;6.682;2023-04-24T02:29:49;13.43;;;6.10;;
71610;SDS011;59459;51.172;6.682;2023-04-24T02:32:14;15.30;;;5.70;;
71610;SDS011;59459;51.172;6.682;2023-04-24T02:34:40;14.70;;;5.90;;
71610;SDS011;59459;51.172;6.682;2023-04-24T02:37:05;14.87;;;6.63;;
71610;SDS011;59459;51.172;6.682;2023-04-24T02:39:30;15.20;;;6.93;;
71610;SDS011;59459;51.172;6.682;2023-04-24T02:41:56;18.67;;;6.93;;
71610;SDS011;59459;51.172;6.682;2023-04-24T02:44:21;15.43;;;6.70;;
71610;SDS011;59459;51.172;6.682;2023-04-24T02:46:47;14.70;;;6.60;;
71610;SDS011;59459;51.172;6.682;2023-04-24T02:49:12;17.73;;;7.23;;
71610;SDS011;59459;51.172;6.682;2023-04-24T02:51:38;14.80;;;6.87;;
71610;SDS011;59459;51.172;6.682;2023-04-24T02:54:05;18.95;;;6.60;;
71610;SDS011;59459;51.172;6.682;2023-04-24T02:56:31;16.63;;;7.17;;
71610;SDS011;59459;51.172;6.682;2023-04-24T02:58:56;18.27;;;6.80;;
71610;SDS011;59459;51.172;6.682;2023-04-24T03:01:21;14.73;;;7.17;;
71610;SDS011;59459;51.172;6.682;2023-04-24T03:03:46;14.67;;;6.63;;
71610;SDS011;59459;51.172;6.682;2023-04-24T03:06:12;14.57;;;6.47;;
71610;SDS011;59459;51.172;6.682;2023-04-24T03:08:37;17.30;;;7.30;;
71610;SDS011;59459;51.172;6.682;2023-04-24T03:11:02;13.93;;;6.90;;
71610;SDS011;59459;51.172;6.682;2023-04-24T03:13:27;11.70;;;5.77;;
71610;SDS011;59459;51.172;6.682;2023-04-24T03:15:52;13.23;;;6.07;;
71610;SDS011;59459;51.172;6.682;2023-04-24T03:18:19;15.38;;;6.28;;
71610;SDS011;59459;51.172;6.682;2023-04-24T03:20:47;14.13;;;6.23;;
71610;SDS011;59459;51.172;6.682;2023-04-24T03:23:12;14.55;;;5.50;;
71610;SDS011;59459;51.172;6.682;2023-04-24T03:25:38;12.67;;;6.33;;
71610;SDS011;59459;51.172;6.682;2023-04-24T03:28:03;16.17;;;6.50;;
71610;SDS011;59459;51.172;6.682;2023-04-24T03:30:29;13.43;;;6.20;;
71610;SDS011;59459;51.172;6.682;2023-04-24T03:32:54;14.77;;;6.60;;
71610;SDS011;59459;51.172;6.682;2023-04-24T03:35:19;15.50;;;6.93;;
71610;SDS011;59459;51.172;6.682;2023-04-24T03:37:46;12.65;;;5.85;;
71610;SDS011;59459;51.172;6.682;2023-04-24T03:40:11;18.13;;;7.07;;
71610;SDS011;59459;51.172;6.682;2023-04-24T03:42:36;16.97;;;5.90;;
71610;SDS011;59459;51.172;6.682;2023-04-24T03:45:01;14.87;;;6.83;;
71610;SDS011;59459;51.172;6.682;2023-04-24T03:47:27;15.13;;;6.57;;
71610;SDS011;59459;51.172;6.682;2023-04-24T03:49:52;14.17;;;6.60;;
71610;SDS011;59459;51.172;6.682;2023-04-24T03:52:18;14.63;;;7.00;;
71610;SDS011;59459;51.172;6.682;2023-04-24T03:54:44;14.93;;;7.03;;
71610;SDS011;59459;51.172;6.682;2023-04-24T03:57:09;14.13;;;6.77;;
71610;SDS011;59459;51.172;6.682;2023-04-24T03:59:34;13.83;;;6.53;;
71610;SDS011;59459;51.172;6.682;2023-04-24T04:01:59;14.10;;;6.43;;
71610;SDS011;59459;51.172;6.682;2023-04-24T04:04:24;16.27;;;7.33;;
71610;SDS011;59459;51.172;6.682;2023-04-24T04:06:50;12.47;;;5.93;;
71610;SDS011;59459;51.172;6.682;2023-04-24T04:09:16;13.63;;;5.72;;
71610;SDS011;59459;51.172;6.682;2023-04-24T04:11:41;14.07;;;6.70;;
71610;SDS011;59459;51.172;6.682;2023-04-24T04:14:06;16.80;;;6.90;;
71610;SDS011;59459;51.172;6.682;2023-04-24T04:16:31;17.47;;;6.73;;
71610;SDS011;59459;51.172;6.682;2023-04-24T04:18:57;15.13;;;6.70;;
71610;SDS011;59459;51.172;6.682;2023-04-24T04:21:22;15.13;;;6.23;;
71610;SDS011;59459;51.172;6.682;2023-04-24T04:23:47;14.50;;;6.27;;
71610;SDS011;59459;51.172;6.682;2023-04-24T04:26:13;14.32;;;6.82;;
71610;SDS011;59459;51.172;6.682;2023-04-24T04:28:38;15.50;;;6.47;;
71610;SDS011;59459;51.172;6.682;2023-04-24T04:31:04;14.48;;;6.88;;
71610;SDS011;59459;51.172;6.682;2023-04-24T04:33:29;13.80;;;6.07;;
71610;SDS011;59459;51.172;6.682;2023-04-24T04:35:54;14.07;;;6.57;;
71610;SDS011;59459;51.172;6.682;2023-04-24T04:38:23;12.77;;;6.18;;
71610;SDS011;59459;51.172;6.682;2023-04-24T04:40:48;12.73;;;5.30;;
71610;SDS011;59459;51.172;6.682;2023-04-24T04:43:14;16.60;;;5.80;;
71610;SDS011;59459;51.172;6.682;2023-04-24T04:45:40;16.67;;;6.53;;
71610;SDS011;59459;51.172;6.682;2023-04-24T04:48:07;14.20;;;5.75;;
71610;SDS011;59459;51.172;6.682;2023-04-24T04:50:34;13.40;;;6.00;;
71610;SDS011;59459;51.172;6.682;2023-04-24T04:52:59;14.93;;;6.07;;
71610;SDS011;59459;51.172;6.682;2023-04-24T04:55:24;14.65;;;5.70;;
71610;SDS011;59459;51.172;6.682;2023-04-24T04:57:50;15.33;;;6.03;;
71610;SDS011;59459;51.172;6.682;2023-04-24T05:00:16;12.20;;;5.73;;
71610;SDS011;59459;51.172;6.682;2023-04-24T05:02:41;14.37;;;5.67;;
71610;SDS011;59459;51.172;6.682;2023-04-24T05:05:06;11.77;;;5.60;;
71610;SDS011;59459;51.172;6.682;2023-04-24T05:07:32;16.80;;;6.35;;
71610;SDS011;59459;51.172;6.682;2023-04-24T05:09:57;12.77;;;6.17;;
71610;SDS011;59459;51.172;6.682;2023-04-24T05:12:22;12.57;;;5.50;;
71610;SDS011;59459;51.172;6.682;2023-04-24T05:14:47;12.40;;;5.43;;
71610;SDS011;59459;51.172;6.682;2023-04-24T05:17:13;13.77;;;5.10;;
71610;SDS011;59459;51.172;6.682;2023-04-24T05:19:38;11.77;;;5.30;;
71610;SDS011;59459;51.172;6.682;2023-04-24T05:22:03;12.30;;;5.10;;
71610;SDS011;59459;51.172;6.682;2023-04-24T05:24:31;12.63;;;5.03;;
71610;SDS011;59459;51.172;6.682;2023-04-24T05:26:56;13.90;;;6.23;;
71610;SDS011;59459;51.172;6.682;2023-04-24T05:29:23;10.88;;;5.43;;
71610;SDS011;59459;51.172;6.682;2023-04-24T05:31:48;13.77;;;5.47;;
71610;SDS011;59459;51.172;6.682;2023-04-24T05:34:14;11.40;;;5.40;;
71610;SDS011;59459;51.172;6.682;2023-04-24T05:36:41;13.05;;;5.68;;
71610;SDS011;59459;51.172;6.682;2023-04-24T05:39:06;14.10;;;4.77;;
71610;SDS011;59459;51.172;6.682;2023-04-24T05:41:31;13.60;;;5.30;;
71610;SDS011;59459;51.172;6.682;2023-04-24T05:43:56;12.27;;;4.97;;
71610;SDS011;59459;51.172;6.682;2023-04-24T05:46:21;11.50;;;5.73;;
71610;SDS011;59459;51.172;6.682;2023-04-24T05:48:47;12.13;;;4.87;;
71610;SDS011;59459;51.172;6.682;2023-04-24T05:51:12;12.70;;;6.03;;
71610;SDS011;59459;51.172;6.682;2023-04-24T05:53:37;10.60;;;4.30;;
71610;SDS011;59459;51.172;6.682;2023-04-24T05:56:02;11.43;;;5.20;;
71610;SDS011;59459;51.172;6.682;2023-04-24T05:58:27;10.50;;;4.97;;
71610;SDS011;59459;51.172;6.682;2023-04-24T06:00:53;11.87;;;4.83;;
71610;SDS011;59459;51.172;6.682;2023-04-24T06:03:18;11.83;;;5.00;;
71610;SDS011;59459;51.172;6.682;2023-04-24T06:05:43;10.13;;;4.47;;
71610;SDS011;59459;51.172;6.682;2023-04-24T06:08:09;8.97;;;4.20;;
71610;SDS011;59459;51.172;6.682;2023-04-24T06:10:34;10.85;;;4.13;;
71610;SDS011;59459;51.172;6.682;2023-04-24T06:12:59;11.33;;;3.87;;
71610;SDS011;59459;51.172;6.682;2023-04-24T06:15:27;11.17;;;4.50;;
71610;SDS011;59459;51.172;6.682;2023-04-24T06:17:52;12.90;;;4.40;;
71610;SDS011;59459;51.172;6.682;2023-04-24T06:20:17;9.50;;;4.33;;
71610;SDS011;59459;51.172;6.682;2023-04-24T06:22:42;9.20;;;3.57;;
71610;SDS011;59459;51.172;6.682;2023-04-24T06:25:07;9.50;;;3.60;;
71610;SDS011;59459;51.172;6.682;2023-04-24T06:27:33;9.87;;;4.20;;
71610;SDS011;59459;51.172;6.682;2023-04-24T06:29:58;8.67;;;3.23;;
71610;SDS011;59459;51.172;6.682;2023-04-24T06:32:23;8.77;;;3.80;;
71610;SDS011;59459;51.172;6.682;2023-04-24T06:34:49;8.77;;;3.43;;
71610;SDS011;59459;51.172;6.682;2023-04-24T06:37:15;9.45;;;3.80;;
71610;SDS011;59459;51.172;6.682;2023-04-24T06:39:41;8.73;;;3.57;;
71610;SDS011;59459;51.172;6.682;2023-04-24T06:42:06;9.50;;;3.97;;
71610;SDS011;59459;51.172;6.682;2023-04-24T06:44:33;10.20;;;3.80;;
71610;SDS011;59459;51.172;6.682;2023-04-24T06:47:02;8.65;;;3.80;;
71610;SDS011;59459;51.172;6.682;2023-04-24T06:49:27;10.13;;;3.80;;
71610;SDS011;59459;51.172;6.682;2023-04-24T06:51:53;9.50;;;3.70;;
71610;SDS011;59459;51.172;6.682;2023-04-24T06:54:18;10.07;;;3.77;;
71610;SDS011;59459;51.172;6.682;2023-04-24T06:56:43;9.93;;;3.60;;
71610;SDS011;59459;51.172;6.682;2023-04-24T06:59:10;9.10;;;3.60;;
71610;SDS011;59459;51.172;6.682;2023-04-24T07:01:35;7.17;;;3.80;;
71610;SDS011;59459;51.172;6.682;2023-04-24T07:04:00;8.40;;;3.13;;
71610;SDS011;59459;51.172;6.682;2023-04-24T07:06:26;8.73;;;3.30;;
71610;SDS011;59459;51.172;6.682;2023-04-24T07:08:52;8.77;;;3.35;;
71610;SDS011;59459;51.172;6.682;2023-04-24T07:11:17;7.13;;;2.90;;
71610;SDS011;59459;51.172;6.682;2023-04-24T07:13:42;6.30;;;2.20;;
71610;SDS011;59459;51.172;6.682;2023-04-24T07:16:09;8.55;;;2.40;;
71610;SDS011;59459;51.172;6.682;2023-04-24T07:18:34;8.87;;;2.37;;
71610;SDS011;59459;51.172;6.682;2023-04-24T07:21:00;5.03;;;1.80;;
71610;SDS011;59459;51.172;6.682;2023-04-24T07:23:25;6.03;;;2.13;;
71610;SDS011;59459;51.172;6.682;2023-04-24T07:25:51;5.53;;;1.57;;
71610;SDS011;59459;51.172;6.682;2023-04-24T07:28:16;5.50;;;1.60;;
71610;SDS011;59459;51.172;6.682;2023-04-24T07:30:42;2.63;;;1.00;;
71610;SDS011;59459;51.172;6.682;2023-04-24T07:33:08;3.23;;;0.80;;
71610;SDS011;59459;51.172;6.682;2023-04-24T07:35:33;3.03;;;0.70;;
71610;SDS011;59459;51.172;6.682;2023-04-24T07:37:58;1.97;;;0.53;;
71610;SDS011;59459;51.172;6.682;2023-04-24T07:40:24;1.33;;;0.50;;
71610;SDS011;59459;51.172;6.682;2023-04-24T07:42:49;0.77;;;0.30;;
71610;SDS011;59459;51.172;6.682;2023-04-24T07:45:14;1.43;;;0.40;;
71610;SDS011;59459;51.172;6.682;2023-04-24T07:47:43;3.20;;;0.50;;
71610;SDS011;59459;51.172;6.682;2023-04-24T07:50:10;1.25;;;0.57;;
71610;SDS011;59459;51.172;6.682;2023-04-24T07:52:35;1.47;;;0.40;;
71610;SDS011;59459;51.172;6.682;2023-04-24T07:55:01;2.10;;;0.40;;
71610;SDS011;59459;51.172;6.682;2023-04-24T07:57:27;1.45;;;0.40;;
71610;SDS011;59459;51.172;6.682;2023-04-24T07:59:52;1.23;;;0.50;;
71610;SDS011;59459;51.172;6.682;2023-04-24T08:02:17;1.20;;;0.40;;
71610;SDS011;59459;51.172;6.682;2023-04-24T08:04:43;1.80;;;0.40;;
71610;SDS011;59459;51.172;6.682;2023-04-24T08:07:08;2.20;;;0.53;;
71610;SDS011;59459;51.172;6.682;2023-04-24T08:09:33;1.70;;;0.60;;
71610;SDS011;59459;51.172;6.682;2023-04-24T08:11:58;2.30;;;0.73;;
71610;SDS011;59459;51.172;6.682;2023-04-24T08:14:24;4.67;;;1.10;;
71610;SDS011;59459;51.172;6.682;2023-04-24T08:16:49;6.13;;;1.90;;
71610;SDS011;59459;51.172;6.682;2023-04-24T08:19:14;5.07;;;1.97;;
71610;SDS011;59459;51.172;6.682;2023-04-24T08:21:39;6.63;;;2.20;;
71610;SDS011;59459;51.172;6.682;2023-04-24T08:24:04;7.23;;;2.70;;
71610;SDS011;59459;51.172;6.682;2023-04-24T08:26:32;7.97;;;2.97;;
71610;SDS011;59459;51.172;6.682;2023-04-24T08:28:57;6.60;;;2.77;;
71610;SDS011;59459;51.172;6.682;2023-04-24T08:31:23;7.37;;;2.60;;
71610;SDS011;59459;51.172;6.682;2023-04-24T08:33:49;6.87;;;2.87;;
71610;SDS011;59459;51.172;6.682;2023-04-24T08:36:15;7.57;;;2.47;;
71610;SDS011;59459;51.172;6.682;2023-04-24T08:38:40;6.80;;;2.70;;
71610;SDS011;59459;51.172;6.682;2023-04-24T08:41:05;6.25;;;2.10;;
71610;SDS011;59459;51.172;6.682;2023-04-24T08:43:32;6.30;;;2.03;;
71610;SDS011;59459;51.172;6.682;2023-04-24T08:45:58;5.72;;;2.10;;
71610;SDS011;59459;51.172;6.682;2023-04-24T08:48:24;6.15;;;1.55;;
71610;SDS011;59459;51.172;6.682;2023-04-24T08:50:50;5.53;;;1.70;;
71610;SDS011;59459;51.172;6.682;2023-04-24T08:53:16;4.33;;;1.30;;
71610;SDS011;59459;51.172;6.682;2023-04-24T08:55:41;5.38;;;1.55;;
71610;SDS011;59459;51.172;6.682;2023-04-24T08:58:08;5.57;;;1.50;;
71610;SDS011;59459;51.172;6.682;2023-04-24T09:00:33;5.70;;;1.80;;
71610;SDS011;59459;51.172;6.682;2023-04-24T09:03:00;4.68;;;1.38;;
71610;SDS011;59459;51.172;6.682;2023-04-24T09:05:25;6.80;;;2.50;;
71610;SDS011;59459;51.172;6.682;2023-04-24T09:07:55;7.20;;;2.63;;
71610;SDS011;59459;51.172;6.682;2023-04-24T09:10:22;9.10;;;3.45;;
71610;SDS011;59459;51.172;6.682;2023-04-24T09:12:47;7.75;;;3.22;;
71610;SDS011;59459;51.172;6.682;2023-04-24T09:15:12;9.83;;;4.00;;
71610;SDS011;59459;51.172;6.682;2023-04-24T09:17:38;10.47;;;4.33;;
71610;SDS011;59459;51.172;6.682;2023-04-24T09:20:03;9.57;;;3.43;;
71610;SDS011;59459;51.172;6.682;2023-04-24T09:22:29;11.25;;;2.88;;
71610;SDS011;59459;51.172;6.682;2023-04-24T09:25:05;7.40;;;3.30;;
71610;SDS011;59459;51.172;6.682;2023-04-24T09:27:31;11.80;;;3.27;;
71610;SDS011;59459;51.172;6.682;2023-04-24T09:29:57;8.98;;;3.13;;
71610;SDS011;59459;51.172;6.682;2023-04-24T09:32:23;8.90;;;3.47;;
71610;SDS011;59459;51.172;6.682;2023-04-24T09:35:04;14.32;;;3.47;;
71610;SDS011;59459;51.172;6.682;2023-04-24T09:37:29;12.65;;;4.43;;
71610;SDS011;59459;51.172;6.682;2023-04-24T09:40:08;13.53;;;4.53;;
71610;SDS011;59459;51.172;6.682;2023-04-24T09:42:33;10.77;;;4.10;;
71610;SDS011;59459;51.172;6.682;2023-04-24T09:44:58;15.33;;;4.43;;
71610;SDS011;59459;51.172;6.682;2023-04-24T09:47:24;13.17;;;4.73;;
71610;SDS011;59459;51.172;6.682;2023-04-24T09:49:49;16.03;;;4.67;;
71610;SDS011;59459;51.172;6.682;2023-04-24T09:52:15;13.50;;;4.83;;
71610;SDS011;59459;51.172;6.682;2023-04-24T09:54:40;13.87;;;5.20;;
71610;SDS011;59459;51.172;6.682;2023-04-24T09:57:07;12.90;;;5.70;;
71610;SDS011;59459;51.172;6.682;2023-04-24T09:59:33;14.88;;;5.05;;
71610;SDS011;59459;51.172;6.682;2023-04-24T10:01:59;12.43;;;5.17;;
71610;SDS011;59459;51.172;6.682;2023-04-24T10:04:25;14.88;;;6.32;;
71610;SDS011;59459;51.172;6.682;2023-04-24T10:06:51;13.13;;;5.30;;
71610;SDS011;59459;51.172;6.682;2023-04-24T10:09:17;10.88;;;4.65;;
71610;SDS011;59459;51.172;6.682;2023-04-24T10:11:44;12.50;;;4.70;;
71610;SDS011;59459;51.172;6.682;2023-04-24T10:14:13;9.73;;;4.40;;
71610;SDS011;59459;51.172;6.682;2023-04-24T10:16:39;13.27;;;4.65;;
71610;SDS011;59459;51.172;6.682;2023-04-24T10:19:05;11.93;;;4.60;;
71610;SDS011;59459;51.172;6.682;2023-04-24T10:21:31;11.83;;;4.67;;
71610;SDS011;59459;51.172;6.682;2023-04-24T10:23:56;13.13;;;5.43;;
71610;SDS011;59459;51.172;6.682;2023-04-24T10:26:22;11.87;;;5.07;;
71610;SDS011;59459;51.172;6.682;2023-04-24T10:28:47;16.97;;;5.33;;
71610;SDS011;59459;51.172;6.682;2023-04-24T10:31:13;14.32;;;6.00;;
71610;SDS011;59459;51.172;6.682;2023-04-24T10:33:39;15.33;;;4.97;;
71610;SDS011;59459;51.172;6.682;2023-04-24T10:36:06;14.75;;;5.03;;
71610;SDS011;59459;51.172;6.682;2023-04-24T10:38:32;12.07;;;4.53;;
71610;SDS011;59459;51.172;6.682;2023-04-24T10:41:11;10.40;;;4.10;;
71610;SDS011;59459;51.172;6.682;2023-04-24T10:43:45;10.87;;;3.73;;
71610;SDS011;59459;51.172;6.682;2023-04-24T10:46:11;12.10;;;4.03;;
71610;SDS011;59459;51.172;6.682;2023-04-24T10:48:44;10.90;;;3.80;;
71610;SDS011;59459;51.172;6.682;2023-04-24T10:51:16;9.80;;;3.40;;
71610;SDS011;59459;51.172;6.682;2023-04-24T10:53:41;9.00;;;3.23;;
71610;SDS011;59459;51.172;6.682;2023-04-24T10:56:08;8.67;;;3.37;;
71610;SDS011;59459;51.172;6.682;2023-04-24T11:01:25;10.15;;;2.72;;
71610;SDS011;59459;51.172;6.682;2023-04-24T11:03:54;11.48;;;3.40;;
71610;SDS011;59459;51.172;6.682;2023-04-24T11:06:21;11.70;;;3.08;;
71610;SDS011;59459;51.172;6.682;2023-04-24T11:08:53;10.10;;;3.00;;
71610;SDS011;59459;51.172;6.682;2023-04-24T11:11:23;13.68;;;2.53;;
71610;SDS011;59459;51.172;6.682;2023-04-24T11:16:31;9.43;;;2.58;;
71610;SDS011;59459;51.172;6.682;2023-04-24T11:21:25;7.83;;;3.10;;
71610;SDS011;59459;51.172;6.682;2023-04-24T11:23:51;11.20;;;2.53;;
71610;SDS011;59459;51.172;6.682;2023-04-24T11:26:21;6.60;;;2.50;;
71610;SDS011;59459;51.172;6.682;2023-04-24T11:28:47;7.73;;;2.17;;
71610;SDS011;59459;51.172;6.682;2023-04-24T11:33:56;7.57;;;2.20;;
71610;SDS011;59459;51.172;6.682;2023-04-24T11:36:21;8.00;;;2.83;;
71610;SDS011;59459;51.172;6.682;2023-04-24T11:38:47;10.30;;;2.67;;
71610;SDS011;59459;51.172;6.682;2023-04-24T11:41:12;11.53;;;3.20;;
71610;SDS011;59459;51.172;6.682;2023-04-24T11:43:38;9.57;;;2.70;;
71610;SDS011;59459;51.172;6.682;2023-04-24T11:46:04;13.02;;;3.72;;
71610;SDS011;59459;51.172;6.682;2023-04-24T11:48:29;8.13;;;2.70;;
71610;SDS011;59459;51.172;6.682;2023-04-24T11:50:54;11.27;;;3.20;;
71610;SDS011;59459;51.172;6.682;2023-04-24T11:53:20;10.63;;;2.30;;
71610;SDS011;59459;51.172;6.682;2023-04-24T11:55:46;6.55;;;2.38;;
71610;SDS011;59459;51.172;6.682;2023-04-24T11:58:11;6.47;;;2.10;;
71610;SDS011;59459;51.172;6.682;2023-04-24T12:00:36;5.73;;;2.37;;
71610;SDS011;59459;51.172;6.682;2023-04-24T12:03:04;9.30;;;2.40;;
71610;SDS011;59459;51.172;6.682;2023-04-24T12:05:30;10.30;;;2.50;;
71610;SDS011;59459;51.172;6.682;2023-04-24T12:07:59;6.25;;;1.83;;
71610;SDS011;59459;51.172;6.682;2023-04-24T12:10:25;8.73;;;2.10;;
71610;SDS011;59459;51.172;6.682;2023-04-24T12:12:51;6.45;;;1.90;;
71610;SDS011;59459;51.172;6.682;2023-04-24T12:15:17;7.93;;;2.00;;
71610;SDS011;59459;51.172;6.682;2023-04-24T12:17:42;11.05;;;2.78;;
71610;SDS011;59459;51.172;6.682;2023-04-24T12:20:08;5.57;;;1.83;;
71610;SDS011;59459;51.172;6.682;2023-04-24T12:22:44;5.78;;;1.88;;
71610;SDS011;59459;51.172;6.682;2023-04-24T12:25:12;5.50;;;1.55;;
71610;SDS011;59459;51.172;6.682;2023-04-24T12:27:37;6.33;;;1.57;;
71610;SDS011;59459;51.172;6.682;2023-04-24T12:30:05;5.63;;;1.87;;
71610;SDS011;59459;51.172;6.682;2023-04-24T12:32:34;7.45;;;1.70;;
71610;SDS011;59459;51.172;6.682;2023-04-24T12:34:59;3.93;;;1.30;;
71610;SDS011;59459;51.172;6.682;2023-04-24T12:37:25;5.10;;;2.00;;
71610;SDS011;59459;51.172;6.682;2023-04-24T12:40:01;7.07;;;1.85;;
71610;SDS011;59459;51.172;6.682;2023-04-24T12:42:26;4.07;;;1.13;;
71610;SDS011;59459;51.172;6.682;2023-04-24T12:44:55;3.97;;;1.27;;
71610;SDS011;59459;51.172;6.682;2023-04-24T12:47:20;4.82;;;1.10;;
71610;SDS011;59459;51.172;6.682;2023-04-24T12:49:46;4.33;;;1.30;;
71610;SDS011;59459;51.172;6.682;2023-04-24T12:52:11;4.40;;;1.80;;
71610;SDS011;59459;51.172;6.682;2023-04-24T12:54:36;5.33;;;1.43;;
71610;SDS011;59459;51.172;6.682;2023-04-24T12:57:01;9.70;;;2.00;;
71610;SDS011;59459;51.172;6.682;2023-04-24T12:59:26;5.73;;;1.37;;
71610;SDS011;59459;51.172;6.682;2023-04-24T13:01:51;6.83;;;1.70;;
71610;SDS011;59459;51.172;6.682;2023-04-24T13:04:17;4.60;;;1.33;;
71610;SDS011;59459;51.172;6.682;2023-04-24T13:06:42;5.63;;;1.30;;
71610;SDS011;59459;51.172;6.682;2023-04-24T13:09:07;5.43;;;1.70;;
71610;SDS011;59459;51.172;6.682;2023-04-24T13:11:32;6.57;;;1.47;;
71610;SDS011;59459;51.172;6.682;2023-04-24T13:14:00;6.20;;;1.93;;
71610;SDS011;59459;51.172;6.682;2023-04-24T13:16:26;6.27;;;1.63;;
71610;SDS011;59459;51.172;6.682;2023-04-24T13:18:51;10.83;;;2.13;;
71610;SDS011;59459;51.172;6.682;2023-04-24T13:21:16;6.67;;;1.80;;
71610;SDS011;59459;51.172;6.682;2023-04-24T13:23:41;5.20;;;1.67;;
71610;SDS011;59459;51.172;6.682;2023-04-24T13:26:07;4.73;;;1.73;;
71610;SDS011;59459;51.172;6.682;2023-04-24T13:28:32;6.60;;;1.80;;
71610;SDS011;59459;51.172;6.682;2023-04-24T13:30:58;5.10;;;1.50;;
71610;SDS011;59459;51.172;6.682;2023-04-24T13:33:23;6.27;;;1.80;;
71610;SDS011;59459;51.172;6.682;2023-04-24T13:35:48;5.23;;;1.57;;
71610;SDS011;59459;51.172;6.682;2023-04-24T13:38:13;4.23;;;1.57;;
71610;SDS011;59459;51.172;6.682;2023-04-24T13:40:38;6.37;;;1.47;;
71610;SDS011;59459;51.172;6.682;2023-04-24T13:43:04;10.53;;;2.13;;
71610;SDS011;59459;51.172;6.682;2023-04-24T13:45:29;4.77;;;1.17;;
71610;SDS011;59459;51.172;6.682;2023-04-24T13:47:54;5.53;;;1.80;;
71610;SDS011;59459;51.172;6.682;2023-04-24T13:50:20;6.67;;;1.27;;
71610;SDS011;59459;51.172;6.682;2023-04-24T13:52:45;9.47;;;1.50;;
71610;SDS011;59459;51.172;6.682;2023-04-24T13:55:10;5.57;;;1.37;;
71610;SDS011;59459;51.172;6.682;2023-04-24T13:57:36;6.20;;;1.60;;
71610;SDS011;59459;51.172;6.682;2023-04-24T14:00:01;4.50;;;1.40;;
71610;SDS011;59459;51.172;6.682;2023-04-24T14:02:28;6.85;;;1.30;;
71610;SDS011;59459;51.172;6.682;2023-04-24T14:04:54;5.73;;;1.60;;
71610;SDS011;59459;51.172;6.682;2023-04-24T14:07:19;6.27;;;1.63;;
71610;SDS011;59459;51.172;6.682;2023-04-24T14:09:44;6.03;;;1.60;;
71610;SDS011;59459;51.172;6.682;2023-04-24T14:12:09;4.70;;;1.92;;
71610;SDS011;59459;51.172;6.682;2023-04-24T14:14:35;5.67;;;1.60;;
71610;SDS011;59459;51.172;6.682;2023-04-24T14:17:00;5.70;;;1.60;;
71610;SDS011;59459;51.172;6.682;2023-04-24T14:19:25;4.00;;;0.90;;
71610;SDS011;59459;51.172;6.682;2023-04-24T14:21:50;6.47;;;1.67;;
71610;SDS011;59459;51.172;6.682;2023-04-24T14:24:16;5.87;;;1.40;;
71610;SDS011;59459;51.172;6.682;2023-04-24T14:26:41;3.60;;;1.13;;
71610;SDS011;59459;51.172;6.682;2023-04-24T14:29:06;5.00;;;1.30;;
71610;SDS011;59459;51.172;6.682;2023-04-24T14:31:31;5.50;;;1.20;;
71610;SDS011;59459;51.172;6.682;2023-04-24T14:33:56;4.00;;;1.13;;
71610;SDS011;59459;51.172;6.682;2023-04-24T14:36:22;5.65;;;1.30;;
71610;SDS011;59459;51.172;6.682;2023-04-24T14:38:47;5.97;;;1.10;;
71610;SDS011;59459;51.172;6.682;2023-04-24T14:41:13;4.80;;;1.40;;
71610;SDS011;59459;51.172;6.682;2023-04-24T14:43:38;3.63;;;1.20;;